sensor_id;sensor_type;location;lat;lon;timestamp;P1;durP1;ratioP1;P2;durP2;ratioP2
58615;SDS011;44385;51.992;4.206;2023-06-22T00:01:08;25.42;;;20.85;;
58615;SDS011;44385;51.992;4.206;2023-06-22T00:03:34;25.45;;;19.75;;
58615;SDS011;44385;51.992;4.206;2023-06-22T00:06:01;25.80;;;20.02;;
58615;SDS011;44385;51.992;4.206;2023-06-22T00:08:27;24.40;;;19.08;;
58615;SDS011;44385;51.992;4.206;2023-06-22T00:10:54;27.80;;;19.35;;
58615;SDS011;44385;51.992;4.206;2023-06-22T00:13:20;23.55;;;19.23;;
58615;SDS011;44385;51.992;4.206;2023-06-22T00:15:47;25.05;;;20.52;;
58615;SDS011;44385;51.992;4.206;2023-06-22T00:18:15;28.65;;;19.73;;
58615;SDS011;44385;51.992;4.206;2023-06-22T00:20:41;22.20;;;17.35;;
58615;SDS011;44385;51.992;4.206;2023-06-22T00:23:11;21.80;;;18.33;;
58615;SDS011;44385;51.992;4.206;2023-06-22T00:25:39;23.77;;;18.25;;
58615;SDS011;44385;51.992;4.206;2023-06-22T00:28:06;23.67;;;17.77;;
58615;SDS011;44385;51.992;4.206;2023-06-22T00:30:33;24.13;;;19.35;;
58615;SDS011;44385;51.992;4.206;2023-06-22T00:32:59;23.10;;;19.38;;
58615;SDS011;44385;51.992;4.206;2023-06-22T00:35:27;23.58;;;17.90;;
58615;SDS011;44385;51.992;4.206;2023-06-22T00:37:54;23.27;;;18.67;;
58615;SDS011;44385;51.992;4.206;2023-06-22T00:40:25;22.77;;;18.30;;
58615;SDS011;44385;51.992;4.206;2023-06-22T00:42:52;24.10;;;20.60;;
58615;SDS011;44385;51.992;4.206;2023-06-22T00:45:18;25.45;;;20.38;;
58615;SDS011;44385;51.992;4.206;2023-06-22T00:47:45;26.13;;;19.75;;
58615;SDS011;44385;51.992;4.206;2023-06-22T00:50:13;26.27;;;21.42;;
58615;SDS011;44385;51.992;4.206;2023-06-22T00:52:44;26.92;;;20.73;;
58615;SDS011;44385;51.992;4.206;2023-06-22T00:55:12;26.52;;;19.55;;
58615;SDS011;44385;51.992;4.206;2023-06-22T00:57:39;25.75;;;19.60;;
58615;SDS011;44385;51.992;4.206;2023-06-22T01:00:06;26.27;;;20.38;;
58615;SDS011;44385;51.992;4.206;2023-06-22T01:02:34;23.67;;;18.75;;
58615;SDS011;44385;51.992;4.206;2023-06-22T01:05:01;23.45;;;18.73;;
58615;SDS011;44385;51.992;4.206;2023-06-22T01:07:31;27.20;;;20.05;;
58615;SDS011;44385;51.992;4.206;2023-06-22T01:10:06;24.38;;;18.67;;
58615;SDS011;44385;51.992;4.206;2023-06-22T01:12:34;25.15;;;21.00;;
58615;SDS011;44385;51.992;4.206;2023-06-22T01:15:05;24.45;;;19.95;;
58615;SDS011;44385;51.992;4.206;2023-06-22T01:17:34;25.55;;;20.38;;
58615;SDS011;44385;51.992;4.206;2023-06-22T01:20:01;27.90;;;20.38;;
58615;SDS011;44385;51.992;4.206;2023-06-22T01:24:59;31.13;;;22.02;;
58615;SDS011;44385;51.992;4.206;2023-06-22T01:27:36;27.13;;;21.08;;
58615;SDS011;44385;51.992;4.206;2023-06-22T01:30:08;28.00;;;21.60;;
58615;SDS011;44385;51.992;4.206;2023-06-22T01:32:38;23.70;;;19.35;;
58615;SDS011;44385;51.992;4.206;2023-06-22T01:35:06;27.65;;;20.55;;
58615;SDS011;44385;51.992;4.206;2023-06-22T01:37:33;25.25;;;20.52;;
58615;SDS011;44385;51.992;4.206;2023-06-22T01:40:00;25.90;;;20.75;;
58615;SDS011;44385;51.992;4.206;2023-06-22T01:42:28;28.00;;;21.00;;
58615;SDS011;44385;51.992;4.206;2023-06-22T01:44:55;24.92;;;19.90;;
58615;SDS011;44385;51.992;4.206;2023-06-22T01:47:23;29.58;;;21.73;;
58615;SDS011;44385;51.992;4.206;2023-06-22T01:49:50;30.35;;;22.20;;
58615;SDS011;44385;51.992;4.206;2023-06-22T01:52:18;30.15;;;22.38;;
58615;SDS011;44385;51.992;4.206;2023-06-22T01:54:46;27.70;;;21.27;;
58615;SDS011;44385;51.992;4.206;2023-06-22T01:57:12;29.50;;;21.48;;
58615;SDS011;44385;51.992;4.206;2023-06-22T01:59:41;28.58;;;21.77;;
58615;SDS011;44385;51.992;4.206;2023-06-22T02:02:15;27.58;;;21.45;;
58615;SDS011;44385;51.992;4.206;2023-06-22T02:04:44;31.50;;;22.30;;
58615;SDS011;44385;51.992;4.206;2023-06-22T02:07:13;32.42;;;22.73;;
58615;SDS011;44385;51.992;4.206;2023-06-22T02:09:41;30.65;;;23.88;;
58615;SDS011;44385;51.992;4.206;2023-06-22T02:12:09;30.35;;;21.73;;
58615;SDS011;44385;51.992;4.206;2023-06-22T02:14:37;25.88;;;21.08;;
58615;SDS011;44385;51.992;4.206;2023-06-22T02:17:07;27.20;;;22.58;;
58615;SDS011;44385;51.992;4.206;2023-06-22T02:19:35;30.67;;;21.70;;
58615;SDS011;44385;51.992;4.206;2023-06-22T02:22:04;28.45;;;22.13;;
58615;SDS011;44385;51.992;4.206;2023-06-22T02:24:31;26.88;;;21.10;;
58615;SDS011;44385;51.992;4.206;2023-06-22T02:26:58;31.48;;;23.08;;
58615;SDS011;44385;51.992;4.206;2023-06-22T02:29:25;32.03;;;23.17;;
58615;SDS011;44385;51.992;4.206;2023-06-22T02:31:52;29.23;;;21.92;;
58615;SDS011;44385;51.992;4.206;2023-06-22T02:34:18;30.33;;;22.30;;
58615;SDS011;44385;51.992;4.206;2023-06-22T02:36:45;30.35;;;22.90;;
58615;SDS011;44385;51.992;4.206;2023-06-22T02:39:18;29.17;;;23.42;;
58615;SDS011;44385;51.992;4.206;2023-06-22T02:41:45;28.50;;;20.75;;
58615;SDS011;44385;51.992;4.206;2023-06-22T02:44:12;31.15;;;23.05;;
58615;SDS011;44385;51.992;4.206;2023-06-22T02:46:39;25.73;;;20.77;;
58615;SDS011;44385;51.992;4.206;2023-06-22T02:49:05;26.95;;;21.05;;
58615;SDS011;44385;51.992;4.206;2023-06-22T02:51:32;27.77;;;19.65;;
58615;SDS011;44385;51.992;4.206;2023-06-22T02:54:00;30.23;;;22.00;;
58615;SDS011;44385;51.992;4.206;2023-06-22T02:56:28;27.75;;;21.25;;
58615;SDS011;44385;51.992;4.206;2023-06-22T02:58:55;26.00;;;22.30;;
58615;SDS011;44385;51.992;4.206;2023-06-22T03:01:26;30.80;;;20.83;;
58615;SDS011;44385;51.992;4.206;2023-06-22T03:03:53;28.40;;;22.50;;
58615;SDS011;44385;51.992;4.206;2023-06-22T03:06:19;33.42;;;22.73;;
58615;SDS011;44385;51.992;4.206;2023-06-22T03:08:48;32.67;;;22.83;;
58615;SDS011;44385;51.992;4.206;2023-06-22T03:11:15;32.80;;;23.98;;
58615;SDS011;44385;51.992;4.206;2023-06-22T03:13:43;29.00;;;21.42;;
58615;SDS011;44385;51.992;4.206;2023-06-22T03:16:10;31.50;;;21.92;;
58615;SDS011;44385;51.992;4.206;2023-06-22T03:18:40;28.98;;;23.50;;
58615;SDS011;44385;51.992;4.206;2023-06-22T03:21:06;26.60;;;22.02;;
58615;SDS011;44385;51.992;4.206;2023-06-22T03:23:33;28.67;;;23.65;;
58615;SDS011;44385;51.992;4.206;2023-06-22T03:25:59;28.25;;;23.00;;
58615;SDS011;44385;51.992;4.206;2023-06-22T03:28:25;30.40;;;23.50;;
58615;SDS011;44385;51.992;4.206;2023-06-22T03:30:54;24.90;;;20.95;;
58615;SDS011;44385;51.992;4.206;2023-06-22T03:33:20;31.00;;;23.17;;
58615;SDS011;44385;51.992;4.206;2023-06-22T03:35:47;28.95;;;20.95;;
58615;SDS011;44385;51.992;4.206;2023-06-22T03:38:15;31.42;;;23.30;;
58615;SDS011;44385;51.992;4.206;2023-06-22T03:40:41;29.20;;;22.30;;
58615;SDS011;44385;51.992;4.206;2023-06-22T03:43:08;29.20;;;22.15;;
58615;SDS011;44385;51.992;4.206;2023-06-22T03:45:34;25.45;;;21.85;;
58615;SDS011;44385;51.992;4.206;2023-06-22T03:48:02;28.23;;;21.63;;
58615;SDS011;44385;51.992;4.206;2023-06-22T03:50:30;30.88;;;21.65;;
58615;SDS011;44385;51.992;4.206;2023-06-22T03:52:57;27.88;;;21.65;;
58615;SDS011;44385;51.992;4.206;2023-06-22T03:55:23;31.23;;;22.08;;
58615;SDS011;44385;51.992;4.206;2023-06-22T03:57:50;27.85;;;21.70;;
58615;SDS011;44385;51.992;4.206;2023-06-22T04:00:18;26.55;;;20.95;;
58615;SDS011;44385;51.992;4.206;2023-06-22T04:02:45;27.38;;;21.63;;
58615;SDS011;44385;51.992;4.206;2023-06-22T04:05:13;27.02;;;22.20;;
58615;SDS011;44385;51.992;4.206;2023-06-22T04:07:39;26.23;;;22.08;;
58615;SDS011;44385;51.992;4.206;2023-06-22T04:10:06;27.98;;;21.17;;
58615;SDS011;44385;51.992;4.206;2023-06-22T04:12:33;26.63;;;21.88;;
58615;SDS011;44385;51.992;4.206;2023-06-22T04:14:59;28.83;;;22.10;;
58615;SDS011;44385;51.992;4.206;2023-06-22T04:17:26;31.80;;;23.88;;
58615;SDS011;44385;51.992;4.206;2023-06-22T04:19:52;30.30;;;22.92;;
58615;SDS011;44385;51.992;4.206;2023-06-22T04:22:20;30.10;;;23.10;;
58615;SDS011;44385;51.992;4.206;2023-06-22T04:24:47;27.30;;;23.17;;
58615;SDS011;44385;51.992;4.206;2023-06-22T04:27:13;29.45;;;22.45;;
58615;SDS011;44385;51.992;4.206;2023-06-22T04:29:39;29.30;;;22.85;;
58615;SDS011;44385;51.992;4.206;2023-06-22T04:32:13;28.98;;;23.73;;
58615;SDS011;44385;51.992;4.206;2023-06-22T04:34:40;29.67;;;23.33;;
58615;SDS011;44385;51.992;4.206;2023-06-22T04:37:06;32.00;;;24.55;;
58615;SDS011;44385;51.992;4.206;2023-06-22T04:39:34;34.70;;;26.25;;
58615;SDS011;44385;51.992;4.206;2023-06-22T04:42:01;35.85;;;24.92;;
58615;SDS011;44385;51.992;4.206;2023-06-22T04:44:27;31.90;;;25.85;;
58615;SDS011;44385;51.992;4.206;2023-06-22T04:46:55;32.17;;;27.27;;
58615;SDS011;44385;51.992;4.206;2023-06-22T04:49:25;39.28;;;28.15;;
58615;SDS011;44385;51.992;4.206;2023-06-22T04:51:58;34.38;;;25.17;;
58615;SDS011;44385;51.992;4.206;2023-06-22T04:54:24;33.63;;;25.77;;
58615;SDS011;44385;51.992;4.206;2023-06-22T04:56:52;29.50;;;24.38;;
58615;SDS011;44385;51.992;4.206;2023-06-22T04:59:21;31.48;;;24.48;;
58615;SDS011;44385;51.992;4.206;2023-06-22T05:01:47;29.80;;;23.52;;
58615;SDS011;44385;51.992;4.206;2023-06-22T05:04:16;30.77;;;23.55;;
58615;SDS011;44385;51.992;4.206;2023-06-22T05:06:43;30.20;;;22.55;;
58615;SDS011;44385;51.992;4.206;2023-06-22T05:09:10;30.02;;;20.90;;
58615;SDS011;44385;51.992;4.206;2023-06-22T05:11:38;24.63;;;19.25;;
58615;SDS011;44385;51.992;4.206;2023-06-22T05:14:05;28.85;;;21.30;;
58615;SDS011;44385;51.992;4.206;2023-06-22T05:16:32;24.92;;;18.58;;
58615;SDS011;44385;51.992;4.206;2023-06-22T05:18:59;27.52;;;19.90;;
58615;SDS011;44385;51.992;4.206;2023-06-22T05:21:25;26.83;;;19.80;;
58615;SDS011;44385;51.992;4.206;2023-06-22T05:23:52;25.80;;;19.25;;
58615;SDS011;44385;51.992;4.206;2023-06-22T05:26:19;23.60;;;17.92;;
58615;SDS011;44385;51.992;4.206;2023-06-22T05:28:46;28.25;;;20.02;;
58615;SDS011;44385;51.992;4.206;2023-06-22T05:31:14;24.58;;;18.05;;
58615;SDS011;44385;51.992;4.206;2023-06-22T05:33:41;24.77;;;17.67;;
58615;SDS011;44385;51.992;4.206;2023-06-22T05:36:07;23.13;;;18.15;;
58615;SDS011;44385;51.992;4.206;2023-06-22T05:38:35;26.00;;;18.23;;
58615;SDS011;44385;51.992;4.206;2023-06-22T05:41:01;23.27;;;19.13;;
58615;SDS011;44385;51.992;4.206;2023-06-22T05:43:28;25.60;;;19.10;;
58615;SDS011;44385;51.992;4.206;2023-06-22T05:45:54;22.30;;;16.90;;
58615;SDS011;44385;51.992;4.206;2023-06-22T05:48:22;29.73;;;17.88;;
58615;SDS011;44385;51.992;4.206;2023-06-22T05:50:49;23.65;;;16.30;;
58615;SDS011;44385;51.992;4.206;2023-06-22T05:53:15;23.92;;;17.42;;
58615;SDS011;44385;51.992;4.206;2023-06-22T05:55:42;21.98;;;16.75;;
58615;SDS011;44385;51.992;4.206;2023-06-22T05:58:08;20.65;;;15.63;;
58615;SDS011;44385;51.992;4.206;2023-06-22T06:00:35;19.88;;;14.73;;
58615;SDS011;44385;51.992;4.206;2023-06-22T06:03:01;19.52;;;15.50;;
58615;SDS011;44385;51.992;4.206;2023-06-22T06:05:30;21.60;;;14.55;;
58615;SDS011;44385;51.992;4.206;2023-06-22T06:07:56;19.67;;;15.63;;
58615;SDS011;44385;51.992;4.206;2023-06-22T06:10:23;19.33;;;14.30;;
58615;SDS011;44385;51.992;4.206;2023-06-22T06:12:50;18.75;;;13.80;;
58615;SDS011;44385;51.992;4.206;2023-06-22T06:15:17;21.35;;;15.68;;
58615;SDS011;44385;51.992;4.206;2023-06-22T06:17:46;19.02;;;15.32;;
58615;SDS011;44385;51.992;4.206;2023-06-22T06:20:13;19.10;;;14.73;;
58615;SDS011;44385;51.992;4.206;2023-06-22T06:22:40;19.33;;;14.73;;
58615;SDS011;44385;51.992;4.206;2023-06-22T06:25:08;20.92;;;15.00;;
58615;SDS011;44385;51.992;4.206;2023-06-22T06:27:34;20.83;;;16.00;;
58615;SDS011;44385;51.992;4.206;2023-06-22T06:30:01;20.90;;;15.02;;
58615;SDS011;44385;51.992;4.206;2023-06-22T06:32:29;18.60;;;13.88;;
58615;SDS011;44385;51.992;4.206;2023-06-22T06:34:56;18.08;;;13.13;;
58615;SDS011;44385;51.992;4.206;2023-06-22T06:37:22;18.55;;;13.98;;
58615;SDS011;44385;51.992;4.206;2023-06-22T06:39:50;18.63;;;13.32;;
58615;SDS011;44385;51.992;4.206;2023-06-22T06:42:16;16.48;;;12.52;;
58615;SDS011;44385;51.992;4.206;2023-06-22T06:44:44;16.48;;;11.95;;
58615;SDS011;44385;51.992;4.206;2023-06-22T06:47:10;19.45;;;12.93;;
58615;SDS011;44385;51.992;4.206;2023-06-22T06:49:38;13.02;;;10.57;;
58615;SDS011;44385;51.992;4.206;2023-06-22T06:52:05;12.77;;;9.55;;
58615;SDS011;44385;51.992;4.206;2023-06-22T06:54:31;14.48;;;11.00;;
58615;SDS011;44385;51.992;4.206;2023-06-22T06:56:59;10.50;;;9.25;;
58615;SDS011;44385;51.992;4.206;2023-06-22T06:59:28;13.80;;;10.75;;
58615;SDS011;44385;51.992;4.206;2023-06-22T07:01:55;15.73;;;10.05;;
58615;SDS011;44385;51.992;4.206;2023-06-22T07:04:21;11.20;;;9.50;;
58615;SDS011;44385;51.992;4.206;2023-06-22T07:06:48;9.93;;;7.85;;
58615;SDS011;44385;51.992;4.206;2023-06-22T07:09:15;11.60;;;8.05;;
58615;SDS011;44385;51.992;4.206;2023-06-22T07:11:43;12.63;;;8.88;;
58615;SDS011;44385;51.992;4.206;2023-06-22T07:14:11;14.35;;;8.50;;
58615;SDS011;44385;51.992;4.206;2023-06-22T07:16:38;8.60;;;7.65;;
58615;SDS011;44385;51.992;4.206;2023-06-22T07:19:05;9.68;;;7.82;;
58615;SDS011;44385;51.992;4.206;2023-06-22T07:21:31;8.75;;;6.93;;
58615;SDS011;44385;51.992;4.206;2023-06-22T07:23:58;8.63;;;7.63;;
58615;SDS011;44385;51.992;4.206;2023-06-22T07:26:24;11.43;;;7.75;;
58615;SDS011;44385;51.992;4.206;2023-06-22T07:28:50;9.88;;;8.88;;
58615;SDS011;44385;51.992;4.206;2023-06-22T07:31:18;10.85;;;8.13;;
58615;SDS011;44385;51.992;4.206;2023-06-22T07:33:45;10.70;;;7.47;;
58615;SDS011;44385;51.992;4.206;2023-06-22T07:36:12;9.90;;;6.93;;
58615;SDS011;44385;51.992;4.206;2023-06-22T07:38:38;11.88;;;8.40;;
58615;SDS011;44385;51.992;4.206;2023-06-22T07:41:05;9.77;;;8.68;;
58615;SDS011;44385;51.992;4.206;2023-06-22T07:43:31;9.70;;;8.35;;
58615;SDS011;44385;51.992;4.206;2023-06-22T07:45:59;13.98;;;8.48;;
58615;SDS011;44385;51.992;4.206;2023-06-22T07:48:27;11.00;;;7.68;;
58615;SDS011;44385;51.992;4.206;2023-06-22T07:50:53;8.30;;;6.15;;
58615;SDS011;44385;51.992;4.206;2023-06-22T07:53:20;9.57;;;7.32;;
58615;SDS011;44385;51.992;4.206;2023-06-22T07:55:46;11.02;;;7.05;;
58615;SDS011;44385;51.992;4.206;2023-06-22T07:58:13;7.97;;;5.93;;
58615;SDS011;44385;51.992;4.206;2023-06-22T08:00:40;7.55;;;6.35;;
58615;SDS011;44385;51.992;4.206;2023-06-22T08:03:07;7.78;;;5.90;;
58615;SDS011;44385;51.992;4.206;2023-06-22T08:05:34;8.65;;;6.25;;
58615;SDS011;44385;51.992;4.206;2023-06-22T08:08:01;7.85;;;5.70;;
58615;SDS011;44385;51.992;4.206;2023-06-22T08:10:27;6.90;;;5.45;;
58615;SDS011;44385;51.992;4.206;2023-06-22T08:12:53;7.47;;;5.20;;
58615;SDS011;44385;51.992;4.206;2023-06-22T08:15:20;7.85;;;5.35;;
58615;SDS011;44385;51.992;4.206;2023-06-22T08:17:47;8.15;;;6.40;;
58615;SDS011;44385;51.992;4.206;2023-06-22T08:20:13;8.48;;;4.97;;
58615;SDS011;44385;51.992;4.206;2023-06-22T08:22:42;6.05;;;4.75;;
58615;SDS011;44385;51.992;4.206;2023-06-22T08:25:09;7.47;;;4.45;;
58615;SDS011;44385;51.992;4.206;2023-06-22T08:27:37;9.27;;;5.60;;
58615;SDS011;44385;51.992;4.206;2023-06-22T08:30:04;5.93;;;4.85;;
58615;SDS011;44385;51.992;4.206;2023-06-22T08:32:31;6.53;;;5.13;;
58615;SDS011;44385;51.992;4.206;2023-06-22T08:34:58;5.97;;;4.68;;
58615;SDS011;44385;51.992;4.206;2023-06-22T08:37:24;7.22;;;5.22;;
58615;SDS011;44385;51.992;4.206;2023-06-22T08:39:58;5.03;;;3.55;;
58615;SDS011;44385;51.992;4.206;2023-06-22T08:42:25;3.97;;;2.90;;
58615;SDS011;44385;51.992;4.206;2023-06-22T08:44:51;3.70;;;3.35;;
58615;SDS011;44385;51.992;4.206;2023-06-22T08:47:18;4.32;;;3.10;;
58615;SDS011;44385;51.992;4.206;2023-06-22T08:49:45;4.18;;;3.15;;
58615;SDS011;44385;51.992;4.206;2023-06-22T08:52:12;4.05;;;3.25;;
58615;SDS011;44385;51.992;4.206;2023-06-22T08:54:39;4.55;;;3.17;;
58615;SDS011;44385;51.992;4.206;2023-06-22T08:57:07;4.93;;;2.55;;
58615;SDS011;44385;51.992;4.206;2023-06-22T08:59:33;3.20;;;2.30;;
58615;SDS011;44385;51.992;4.206;2023-06-22T09:01:59;4.88;;;2.40;;
58615;SDS011;44385;51.992;4.206;2023-06-22T09:04:26;3.80;;;2.55;;
58615;SDS011;44385;51.992;4.206;2023-06-22T09:06:52;6.03;;;3.28;;
58615;SDS011;44385;51.992;4.206;2023-06-22T09:09:20;2.83;;;1.98;;
58615;SDS011;44385;51.992;4.206;2023-06-22T09:11:47;4.25;;;2.47;;
58615;SDS011;44385;51.992;4.206;2023-06-22T09:14:15;4.30;;;2.42;;
58615;SDS011;44385;51.992;4.206;2023-06-22T09:16:41;3.47;;;2.80;;
58615;SDS011;44385;51.992;4.206;2023-06-22T09:19:08;4.68;;;2.58;;
58615;SDS011;44385;51.992;4.206;2023-06-22T09:21:34;5.28;;;2.85;;
58615;SDS011;44385;51.992;4.206;2023-06-22T09:24:00;4.78;;;2.70;;
58615;SDS011;44385;51.992;4.206;2023-06-22T09:26:27;3.38;;;2.42;;
58615;SDS011;44385;51.992;4.206;2023-06-22T09:28:54;3.05;;;2.75;;
58615;SDS011;44385;51.992;4.206;2023-06-22T09:31:21;5.07;;;3.08;;
58615;SDS011;44385;51.992;4.206;2023-06-22T09:33:51;2.72;;;2.20;;
58615;SDS011;44385;51.992;4.206;2023-06-22T09:36:17;3.45;;;2.40;;
58615;SDS011;44385;51.992;4.206;2023-06-22T09:38:43;3.08;;;2.40;;
58615;SDS011;44385;51.992;4.206;2023-06-22T09:41:10;3.85;;;2.83;;
58615;SDS011;44385;51.992;4.206;2023-06-22T09:43:37;3.15;;;2.45;;
58615;SDS011;44385;51.992;4.206;2023-06-22T09:46:03;4.22;;;2.80;;
58615;SDS011;44385;51.992;4.206;2023-06-22T09:48:32;3.55;;;2.42;;
58615;SDS011;44385;51.992;4.206;2023-06-22T09:50:58;2.63;;;2.35;;
58615;SDS011;44385;51.992;4.206;2023-06-22T09:53:25;5.72;;;2.90;;
58615;SDS011;44385;51.992;4.206;2023-06-22T09:55:51;2.97;;;2.65;;
58615;SDS011;44385;51.992;4.206;2023-06-22T09:58:18;4.28;;;2.95;;
58615;SDS011;44385;51.992;4.206;2023-06-22T10:00:44;11.43;;;9.07;;
58615;SDS011;44385;51.992;4.206;2023-06-22T10:03:10;17.13;;;13.32;;
58615;SDS011;44385;51.992;4.206;2023-06-22T10:05:38;21.40;;;14.98;;
58615;SDS011;44385;51.992;4.206;2023-06-22T10:08:05;17.27;;;15.02;;
58615;SDS011;44385;51.992;4.206;2023-06-22T10:10:32;22.15;;;14.85;;
58615;SDS011;44385;51.992;4.206;2023-06-22T10:13:07;18.00;;;16.08;;
58615;SDS011;44385;51.992;4.206;2023-06-22T10:15:34;19.42;;;15.10;;
58615;SDS011;44385;51.992;4.206;2023-06-22T10:18:01;20.20;;;17.08;;
58615;SDS011;44385;51.992;4.206;2023-06-22T10:20:27;17.20;;;15.40;;
58615;SDS011;44385;51.992;4.206;2023-06-22T10:22:55;20.02;;;15.75;;
58615;SDS011;44385;51.992;4.206;2023-06-22T10:25:22;20.88;;;15.63;;
58615;SDS011;44385;51.992;4.206;2023-06-22T10:27:48;16.75;;;13.98;;
58615;SDS011;44385;51.992;4.206;2023-06-22T10:30:15;17.77;;;13.95;;
58615;SDS011;44385;51.992;4.206;2023-06-22T10:32:41;17.38;;;13.60;;
58615;SDS011;44385;51.992;4.206;2023-06-22T10:35:08;16.55;;;14.85;;
58615;SDS011;44385;51.992;4.206;2023-06-22T10:37:35;17.60;;;13.20;;
58615;SDS011;44385;51.992;4.206;2023-06-22T10:40:04;18.35;;;13.95;;
58615;SDS011;44385;51.992;4.206;2023-06-22T10:42:31;16.00;;;14.27;;
58615;SDS011;44385;51.992;4.206;2023-06-22T10:44:57;17.08;;;14.18;;
58615;SDS011;44385;51.992;4.206;2023-06-22T10:47:24;15.40;;;13.98;;
58615;SDS011;44385;51.992;4.206;2023-06-22T10:49:50;15.63;;;14.00;;
58615;SDS011;44385;51.992;4.206;2023-06-22T10:52:17;16.67;;;14.13;;
58615;SDS011;44385;51.992;4.206;2023-06-22T10:54:43;14.65;;;12.95;;
58615;SDS011;44385;51.992;4.206;2023-06-22T10:57:11;14.73;;;12.52;;
58615;SDS011;44385;51.992;4.206;2023-06-22T10:59:38;15.60;;;13.93;;
58615;SDS011;44385;51.992;4.206;2023-06-22T11:02:05;15.30;;;13.35;;
58615;SDS011;44385;51.992;4.206;2023-06-22T11:04:31;12.73;;;11.43;;
58615;SDS011;44385;51.992;4.206;2023-06-22T11:06:57;14.50;;;11.88;;
58615;SDS011;44385;51.992;4.206;2023-06-22T11:09:24;14.00;;;12.57;;
58615;SDS011;44385;51.992;4.206;2023-06-22T11:11:51;16.55;;;14.82;;
58615;SDS011;44385;51.992;4.206;2023-06-22T11:14:19;14.35;;;12.95;;
58615;SDS011;44385;51.992;4.206;2023-06-22T11:16:46;16.43;;;12.27;;
58615;SDS011;44385;51.992;4.206;2023-06-22T11:19:13;19.10;;;16.25;;
58615;SDS011;44385;51.992;4.206;2023-06-22T11:21:39;16.02;;;14.30;;
58615;SDS011;44385;51.992;4.206;2023-06-22T11:24:06;19.20;;;17.23;;
58615;SDS011;44385;51.992;4.206;2023-06-22T11:26:32;19.85;;;17.92;;
58615;SDS011;44385;51.992;4.206;2023-06-22T11:28:59;15.57;;;14.13;;
58615;SDS011;44385;51.992;4.206;2023-06-22T11:31:26;17.90;;;14.88;;
58615;SDS011;44385;51.992;4.206;2023-06-22T11:33:53;17.60;;;15.88;;
58615;SDS011;44385;51.992;4.206;2023-06-22T11:36:19;15.73;;;14.02;;
58615;SDS011;44385;51.992;4.206;2023-06-22T11:38:46;19.63;;;16.52;;
58615;SDS011;44385;51.992;4.206;2023-06-22T11:41:12;18.55;;;16.85;;
58615;SDS011;44385;51.992;4.206;2023-06-22T11:43:39;19.05;;;17.23;;
58615;SDS011;44385;51.992;4.206;2023-06-22T11:46:06;19.75;;;17.73;;
58615;SDS011;44385;51.992;4.206;2023-06-22T11:48:34;17.88;;;16.27;;
58615;SDS011;44385;51.992;4.206;2023-06-22T11:51:01;17.80;;;16.00;;
58615;SDS011;44385;51.992;4.206;2023-06-22T11:53:28;16.55;;;14.80;;
58615;SDS011;44385;51.992;4.206;2023-06-22T11:55:55;17.58;;;15.68;;
58615;SDS011;44385;51.992;4.206;2023-06-22T11:58:21;18.38;;;16.38;;
58615;SDS011;44385;51.992;4.206;2023-06-22T12:00:48;17.58;;;15.93;;
58615;SDS011;44385;51.992;4.206;2023-06-22T12:03:15;18.52;;;16.48;;
58615;SDS011;44385;51.992;4.206;2023-06-22T12:05:43;17.52;;;15.73;;
58615;SDS011;44385;51.992;4.206;2023-06-22T12:08:09;20.00;;;18.15;;
58615;SDS011;44385;51.992;4.206;2023-06-22T12:10:37;17.20;;;15.50;;
58615;SDS011;44385;51.992;4.206;2023-06-22T12:13:03;18.77;;;16.80;;
58615;SDS011;44385;51.992;4.206;2023-06-22T12:15:30;18.80;;;16.88;;
58615;SDS011;44385;51.992;4.206;2023-06-22T12:17:57;18.60;;;16.67;;
58615;SDS011;44385;51.992;4.206;2023-06-22T12:20:23;21.52;;;18.05;;
58615;SDS011;44385;51.992;4.206;2023-06-22T12:22:51;18.38;;;16.40;;
58615;SDS011;44385;51.992;4.206;2023-06-22T12:25:19;19.80;;;17.73;;
58615;SDS011;44385;51.992;4.206;2023-06-22T12:27:46;22.08;;;20.00;;
58615;SDS011;44385;51.992;4.206;2023-06-22T12:30:12;20.65;;;18.45;;
58615;SDS011;44385;51.992;4.206;2023-06-22T12:32:38;20.85;;;18.75;;
58615;SDS011;44385;51.992;4.206;2023-06-22T12:35:05;21.08;;;18.85;;
58615;SDS011;44385;51.992;4.206;2023-06-22T12:37:36;19.45;;;17.63;;
58615;SDS011;44385;51.992;4.206;2023-06-22T12:40:08;18.63;;;16.73;;
58615;SDS011;44385;51.992;4.206;2023-06-22T12:42:35;18.02;;;15.88;;
58615;SDS011;44385;51.992;4.206;2023-06-22T12:45:01;20.40;;;16.85;;
58615;SDS011;44385;51.992;4.206;2023-06-22T12:47:28;19.25;;;15.43;;
58615;SDS011;44385;51.992;4.206;2023-06-22T12:49:54;19.30;;;17.10;;
58615;SDS011;44385;51.992;4.206;2023-06-22T12:52:21;19.80;;;17.58;;
58615;SDS011;44385;51.992;4.206;2023-06-22T12:54:47;19.85;;;17.75;;
58615;SDS011;44385;51.992;4.206;2023-06-22T12:57:15;17.48;;;15.68;;
58615;SDS011;44385;51.992;4.206;2023-06-22T12:59:42;19.55;;;17.40;;
58615;SDS011;44385;51.992;4.206;2023-06-22T13:02:09;18.25;;;16.42;;
58615;SDS011;44385;51.992;4.206;2023-06-22T13:04:35;17.08;;;15.07;;
58615;SDS011;44385;51.992;4.206;2023-06-22T13:07:02;17.92;;;16.15;;
58615;SDS011;44385;51.992;4.206;2023-06-22T13:09:30;19.77;;;15.95;;
58615;SDS011;44385;51.992;4.206;2023-06-22T13:11:56;15.27;;;12.88;;
58615;SDS011;44385;51.992;4.206;2023-06-22T13:14:24;14.88;;;13.15;;
58615;SDS011;44385;51.992;4.206;2023-06-22T13:16:50;17.67;;;14.02;;
58615;SDS011;44385;51.992;4.206;2023-06-22T13:19:17;13.93;;;12.57;;
58615;SDS011;44385;51.992;4.206;2023-06-22T13:21:43;15.65;;;13.38;;
58615;SDS011;44385;51.992;4.206;2023-06-22T13:24:10;15.60;;;13.18;;
58615;SDS011;44385;51.992;4.206;2023-06-22T13:26:37;13.35;;;11.77;;
58615;SDS011;44385;51.992;4.206;2023-06-22T13:29:04;16.45;;;13.13;;
58615;SDS011;44385;51.992;4.206;2023-06-22T13:31:32;11.75;;;10.60;;
58615;SDS011;44385;51.992;4.206;2023-06-22T13:33:58;15.82;;;12.88;;
58615;SDS011;44385;51.992;4.206;2023-06-22T13:36:24;14.07;;;11.63;;
58615;SDS011;44385;51.992;4.206;2023-06-22T13:38:51;14.25;;;11.80;;
58615;SDS011;44385;51.992;4.206;2023-06-22T13:41:17;15.10;;;12.73;;
58615;SDS011;44385;51.992;4.206;2023-06-22T13:43:44;13.43;;;12.10;;
58615;SDS011;44385;51.992;4.206;2023-06-22T13:46:10;14.88;;;12.82;;
58615;SDS011;44385;51.992;4.206;2023-06-22T13:48:38;15.18;;;12.90;;
58615;SDS011;44385;51.992;4.206;2023-06-22T13:51:05;14.75;;;13.18;;
58615;SDS011;44385;51.992;4.206;2023-06-22T13:53:31;14.02;;;12.45;;
58615;SDS011;44385;51.992;4.206;2023-06-22T13:55:58;16.42;;;13.05;;
58615;SDS011;44385;51.992;4.206;2023-06-22T13:58:24;13.45;;;12.05;;
58615;SDS011;44385;51.992;4.206;2023-06-22T14:00:50;15.40;;;13.73;;
58615;SDS011;44385;51.992;4.206;2023-06-22T14:03:17;14.75;;;12.73;;
58615;SDS011;44385;51.992;4.206;2023-06-22T14:05:45;18.90;;;14.48;;
58615;SDS011;44385;51.992;4.206;2023-06-22T14:08:12;17.15;;;14.13;;
58615;SDS011;44385;51.992;4.206;2023-06-22T14:10:40;19.27;;;14.13;;
58615;SDS011;44385;51.992;4.206;2023-06-22T14:13:06;18.00;;;14.50;;
58615;SDS011;44385;51.992;4.206;2023-06-22T14:15:32;15.57;;;14.02;;
58615;SDS011;44385;51.992;4.206;2023-06-22T14:17:59;15.13;;;13.73;;
58615;SDS011;44385;51.992;4.206;2023-06-22T14:20:25;14.75;;;13.18;;
58615;SDS011;44385;51.992;4.206;2023-06-22T14:22:53;15.63;;;12.93;;
58615;SDS011;44385;51.992;4.206;2023-06-22T14:25:20;15.15;;;13.50;;
58615;SDS011;44385;51.992;4.206;2023-06-22T14:27:46;15.18;;;13.32;;